Sunset Hill, Washington
Current Conditions -  °F | °C
As of 12:53 PM on Tuesday 21 Oct 2014 (Local Time) from KGEG Reporting Station
Broken Clouds Broken Clouds  
Wind Chill: 54°   Ceiling: 2500
Heat Index: 54°   Visibility: 10mi
Dew Point: 43°   Wind: 15mph
Humidity: 66%   Direction: 230°SW
Pressure: 29.92"   Gusts: NA
Location:  47.657°N, 117.544°W
Report Text: KGEG 211953Z 23013KT 10SM BKN025 BKN090 12/06 A2992 RMK AO2 SLP132 T01220061
Loading
Personal Weather Stations






























Interactive Weather Map
Tropical Storm Tracking
New forecast layout! Learn more

10-Day Weather Forecast

Advertisements
Track Severe Weather on mobile